Bosporus — V2QY — position and weather

sailwx.info

Track history (hours):
 
Tides and Currents Weather Stations Pressure Air Temp Water Temp Dewpoint Dewpoint Depression Visibility Wind Speed Wind Dir Waves Ship Positions

Bosporus

Last reported at 2018-May-21 04:20 UTC. Time now 2018-May-22 15:53 UTC.
Position N 42°56' E 010°34'.

Length 100 m; draft 5.9 m.

Type: Cargo ship. MMSI: 304010802.

Date/timePositionNaut miles runAvg speedWind from/ knotsBaromVisibWave heightAir tempDewpointWater temp
2018-May-21 04:20N 42°56' E 010°34'1 2.1
2018-May-21 03:59N 42°55' E 010°34'2 2.8
2018-May-21 03:20N 42°54' E 010°32'5 5.4
2018-May-21 02:29N 42°56' E 010°27'4 7.4
2018-May-21 02:00N 42°58' E 010°22'4 7.6
2018-May-21 01:30N 42°59' E 010°18'4 7.3
2018-May-21 01:00N 43°01' E 010°13'4 7.4
2018-May-21 00:30N 43°03' E 010°09'4 7.4
2018-May-21 00:00N 43°05' E 010°05'4 7.2
2018-May-20 23:30N 43°06' E 010°00'3 6.9
2018-May-20 23:00N 43°08' E 009°56'4 7.6
2018-May-20 22:29N 43°09' E 009°51'3 7.0
2018-May-20 22:00N 43°10' E 009°47'4 7.3
2018-May-20 21:30N 43°10' E 009°42'4 7.0
2018-May-20 20:57N 43°10' E 009°36'6 7.1
2018-May-20 20:04N 43°09' E 009°28'1 7.1
2018-May-20 19:59N 43°09' E 009°27'3 7.2
2018-May-20 19:30N 43°09' E 009°22'4 7.4
2018-May-20 19:00N 43°09' E 009°17'4 7.2
2018-May-20 18:30N 43°09' E 009°12'4 7.2
2018-May-20 18:00N 43°09' E 009°07'4 8.4
2018-May-20 17:30N 43°08' E 009°01'4 8.4
2018-May-20 17:00N 43°08' E 008°56'4 8.1
2018-May-20 16:30N 43°07' E 008°50'4 7.8
2018-May-20 16:00N 43°07' E 008°45'4 7.8
2018-May-20 15:30N 43°06' E 008°40'4 7.5
2018-May-20 15:00N 43°06' E 008°34'4 7.5
2018-May-20 14:30N 43°05' E 008°29'4 7.6
2018-May-20 14:00N 43°05' E 008°24'4 7.6
2018-May-20 13:30N 43°05' E 008°19'4 7.6
2018-May-20 13:00N 43°04' E 008°14'4 7.3
2018-May-20 12:30N 43°04' E 008°09'4 7.1
2018-May-20 12:00N 43°04' E 008°04'4 7.3
2018-May-20 11:30N 43°03' E 007°59'4 7.5
2018-May-20 11:00N 43°03' E 007°54'26 7.4
2018-May-20 07:30N 43°01' E 007°18'5 7.5
2018-May-20 06:54N 43°00' E 007°12'4 8.7
2018-May-20 06:27N 42°60' E 007°07'93 9.1
2018-May-19 20:18N 43°12' E 005°01'3 9.8
2018-May-19 19:57N 43°16' E 004°60'4 9.8
2018-May-19 19:30N 43°20' E 004°58'4 8.9
2018-May-19 19:00N 43°24' E 004°55'2 4.8
2018-May-19 18:30N 43°26' E 004°53'0 0.0
2018-May-19 17:56N 43°26' E 004°53'0 0.0
2018-May-19 17:26N 43°26' E 004°53'0 0.0
2018-May-19 16:56N 43°26' E 004°53'0 0.0
2018-May-19 16:29N 43°26' E 004°53'0 0.0
2018-May-19 15:56N 43°26' E 004°53'0 0.0
2018-May-19 15:20N 43°26' E 004°53'0 0.0
2018-May-19 14:44N 43°26' E 004°53'0 0.0
2018-May-19 14:20N 43°26' E 004°53'0 0.0
2018-May-19 13:56N 43°26' E 004°53'0 0.0
2018-May-19 13:26N 43°26' E 004°53'0 0.0
2018-May-19 12:56N 43°26' E 004°53'0 0.0
2018-May-19 12:26N 43°26' E 004°53'0 0.0
2018-May-19 11:59N 43°26' E 004°53'0 0.0
2018-May-19 11:26N 43°26' E 004°53'0 0.0
2018-May-19 10:59N 43°26' E 004°53'0 0.0
2018-May-19 10:26N 43°26' E 004°53'0 0.0
2018-May-19 09:50N 43°26' E 004°53'0 0.0
2018-May-19 09:29N 43°26' E 004°53'0 0.0
2018-May-19 08:56N 43°26' E 004°53'0 0.0
2018-May-19 08:26N 43°26' E 004°53'0 0.0
2018-May-19 07:59N 43°26' E 004°53'0 0.0
2018-May-19 07:23N 43°26' E 004°53'0 0.0
2018-May-19 06:56N 43°26' E 004°53'0 0.0
2018-May-19 06:20N 43°26' E 004°53'0 0.0
2018-May-19 05:56N 43°26' E 004°53'0 0.0
2018-May-19 05:26N 43°26' E 004°53'0 0.0
2018-May-19 04:56N 43°26' E 004°53'0 0.0
2018-May-19 04:26N 43°26' E 004°53'0 0.0
2018-May-19 03:56N 43°26' E 004°53'0 0.0
2018-May-19 03:29N 43°26' E 004°53'0 0.0
2018-May-19 02:56N 43°26' E 004°53'0 0.0
2018-May-19 02:26N 43°26' E 004°53'0 0.0
2018-May-19 01:56N 43°26' E 004°53'0 0.0
2018-May-19 01:26N 43°26' E 004°53'0 0.0
2018-May-19 00:56N 43°26' E 004°53'0 0.0
2018-May-19 00:29N 43°26' E 004°53'0 0.0
2018-May-18 23:56N 43°26' E 004°53'0 0.0
2018-May-18 23:29N 43°26' E 004°53'0 0.0
2018-May-18 22:56N 43°26' E 004°53'0 0.0
2018-May-18 22:29N 43°26' E 004°53'0 0.0
2018-May-18 21:56N 43°26' E 004°53'0 0.0
2018-May-18 21:26N 43°26' E 004°53'0 0.0
2018-May-18 20:59N 43°26' E 004°53'0 0.5
2018-May-18 20:30N 43°25' E 004°53'2 3.3
2018-May-18 19:55N 43°25' E 004°56'0 0.1
2018-May-18 19:28N 43°25' E 004°56'0 0.0
2018-May-18 18:58N 43°25' E 004°56'0 0.0
2018-May-18 18:28N 43°25' E 004°56'0 0.1
2018-May-18 17:58N 43°25' E 004°56'0 0.0
2018-May-18 17:28N 43°25' E 004°56'0 0.0
2018-May-18 16:58N 43°25' E 004°56'0 0.0
2018-May-18 16:28N 43°25' E 004°56'0 0.0
2018-May-18 15:58N 43°25' E 004°56'0 0.0
2018-May-18 15:28N 43°25' E 004°56'0 0.0
2018-May-18 14:58N 43°25' E 004°56'0 0.0
2018-May-18 14:28N 43°25' E 004°56'0 0.0
2018-May-18 13:58N 43°25' E 004°56'0 0.0
2018-May-18 13:28N 43°25' E 004°56'0 0.0
2018-May-18 12:58N 43°25' E 004°56'0 0.0
2018-May-18 12:28N 43°25' E 004°56'0 0.0
2018-May-18 11:58N 43°25' E 004°56'0 0.0
2018-May-18 11:28N 43°25' E 004°56'0 0.0
2018-May-18 10:58N 43°25' E 004°56'0 0.0
2018-May-18 10:28N 43°25' E 004°56'0 0.0
2018-May-18 09:58N 43°25' E 004°56'0 0.0
2018-May-18 09:28N 43°25' E 004°56'0 0.0
2018-May-18 08:58N 43°25' E 004°56'0 0.0
2018-May-18 08:28N 43°25' E 004°56'0 0.0
2018-May-18 07:58N 43°25' E 004°56'0 0.1
2018-May-18 07:28N 43°25' E 004°56'0 0.1
2018-May-18 06:58N 43°25' E 004°56'0 0.0
2018-May-18 06:28N 43°25' E 004°56'0 0.1
2018-May-18 05:55N 43°25' E 004°56'0 0.0
2018-May-18 05:28N 43°25' E 004°56'0 0.0
2018-May-18 04:58N 43°25' E 004°56'0 0.0
2018-May-18 04:28N 43°25' E 004°56'0 0.0
2018-May-18 03:55N 43°25' E 004°56'0 0.0
2018-May-18 03:28N 43°25' E 004°56'0 0.0
2018-May-18 02:58N 43°25' E 004°56'0 0.0
2018-May-18 02:28N 43°25' E 004°56'0 0.0
2018-May-18 01:58N 43°25' E 004°56'0 0.0
2018-May-18 01:28N 43°25' E 004°56'0 0.0
2018-May-18 00:58N 43°25' E 004°56'0 0.0
2018-May-18 00:28N 43°25' E 004°56'0 0.0
2018-May-17 23:58N 43°25' E 004°56'0 0.0
2018-May-17 23:28N 43°25' E 004°56'0 0.1
2018-May-17 22:58N 43°25' E 004°56'0 0.0
2018-May-17 22:25N 43°25' E 004°56'0 0.0
2018-May-17 21:55N 43°25' E 004°56'0 0.0
2018-May-17 21:25N 43°25' E 004°56'0 0.0
2018-May-17 20:55N 43°25' E 004°56'0 0.0
2018-May-17 20:25N 43°25' E 004°56'0 0.0
2018-May-17 19:49N 43°25' E 004°56'0 0.0
2018-May-17 19:19N 43°25' E 004°56'0 0.0
2018-May-17 18:55N 43°25' E 004°56'0 0.0
2018-May-17 18:25N 43°25' E 004°56'0 0.0
2018-May-17 17:55N 43°25' E 004°56'0 0.0
2018-May-17 17:25N 43°25' E 004°56'0 0.0
2018-May-17 16:55N 43°25' E 004°56'0 0.0
2018-May-17 16:28N 43°25' E 004°56'0 0.0
2018-May-17 15:55N 43°25' E 004°56'0 0.0
2018-May-17 15:28N 43°25' E 004°56'0 0.0
2018-May-17 14:58N 43°25' E 004°56'3 5.5
2018-May-17 14:30N 43°22' E 004°58'510.2
2018-May-17 14:00N 43°18' E 004°60'510.7
2018-May-17 13:30N 43°13' E 005°02'15510.1
2018-May-16 22:10N 41°25' E 002°32'211.1
2018-May-16 22:00N 41°24' E 002°30'611.0
2018-May-16 21:30N 41°20' E 002°25'611.1
2018-May-16 21:00N 41°17' E 002°19'511.0
2018-May-16 20:30N 41°15' E 002°12'611.2
2018-May-16 20:00N 41°13' E 002°05'511.1
2018-May-16 19:30N 41°11' E 001°58'611.1
2018-May-16 19:00N 41°10' E 001°51'611.4
2018-May-16 18:30N 41°08' E 001°44'611.2
2018-May-16 18:00N 41°07' E 001°36'2 0.2
2018-May-16 06:41N 41°06' E 001°33'210.5
2018-May-16 06:30N 41°07' E 001°36'510.3
2018-May-16 06:00N 41°08' E 001°42'5 9.9
2018-May-16 05:30N 41°10' E 001°49'5 9.8
2018-May-16 05:00N 41°11' E 001°55'5 9.9
2018-May-16 04:30N 41°12' E 002°01'5 9.8
2018-May-16 04:00N 41°14' E 002°07'5 9.9
2018-May-16 03:30N 41°15' E 002°14'510.0
2018-May-16 03:00N 41°18' E 002°19'510.1
2018-May-16 02:30N 41°21' E 002°25'147 7.5
2018-May-15 06:49N 43°16' E 004°29'2 8.3
2018-May-15 06:30N 43°16' E 004°33'4 8.4
2018-May-15 06:00N 43°16' E 004°38'4 8.5
2018-May-15 05:30N 43°17' E 004°44'4 8.4
2018-May-15 05:00N 43°17' E 004°50'4 8.6
2018-May-15 04:30N 43°19' E 004°55'3 6.7
2018-May-15 04:00N 43°22' E 004°57'4 8.7
2018-May-15 03:30N 43°25' E 004°53'1 1.3
2018-May-15 02:58N 43°26' E 004°54'0 0.0
2018-May-15 02:25N 43°26' E 004°54'0 0.0
2018-May-15 01:55N 43°26' E 004°54'0 0.0
2018-May-15 01:28N 43°26' E 004°54'0 0.0
2018-May-15 00:58N 43°26' E 004°54'0 0.0
2018-May-15 00:28N 43°26' E 004°54'0 0.0
2018-May-14 23:58N 43°26' E 004°54'0 0.0
2018-May-14 23:28N 43°26' E 004°54'0 0.0
2018-May-14 22:58N 43°26' E 004°54'0 0.0
2018-May-14 22:28N 43°26' E 004°54'0 0.0
2018-May-14 21:55N 43°26' E 004°54'0 0.0
2018-May-14 21:28N 43°26' E 004°54'0 0.0
2018-May-14 20:58N 43°26' E 004°54'0 0.0
2018-May-14 20:28N 43°26' E 004°54'0 0.0
2018-May-14 19:58N 43°26' E 004°54'0 0.0
2018-May-14 19:28N 43°26' E 004°54'0 0.0
2018-May-14 18:58N 43°26' E 004°54'0 0.0
2018-May-14 18:28N 43°26' E 004°54'0 0.0
2018-May-14 17:58N 43°26' E 004°54'0 0.0
2018-May-14 17:28N 43°26' E 004°54'0 0.0
2018-May-14 16:58N 43°26' E 004°54'0 0.0
2018-May-14 16:28N 43°26' E 004°54'0 0.0
2018-May-14 15:58N 43°26' E 004°54'0 0.0
2018-May-14 15:28N 43°26' E 004°54'0 0.0
2018-May-14 14:58N 43°26' E 004°54'0 0.0
2018-May-14 14:28N 43°26' E 004°54'0 0.0
2018-May-14 13:58N 43°26' E 004°54'0 0.0
2018-May-14 13:28N 43°26' E 004°54'0 0.0
2018-May-14 12:58N 43°26' E 004°54'0 0.0
2018-May-14 12:28N 43°26' E 004°54'0 0.0
2018-May-14 11:55N 43°26' E 004°54'0 0.0
2018-May-14 11:28N 43°26' E 004°54'0 0.0
2018-May-14 10:58N 43°26' E 004°54'0 0.0
2018-May-14 10:28N 43°26' E 004°54'0 0.0
2018-May-14 09:58N 43°26' E 004°54'0 0.0
2018-May-14 09:28N 43°26' E 004°54'0 0.0
2018-May-14 08:58N 43°26' E 004°54'0 0.0
2018-May-14 08:19N 43°26' E 004°54'0 0.0
2018-May-14 07:58N 43°26' E 004°54'0 0.0
2018-May-14 07:28N 43°26' E 004°54'0 0.0
2018-May-14 06:58N 43°26' E 004°54'0 0.0
2018-May-14 06:28N 43°26' E 004°54'0 0.0
2018-May-14 05:58N 43°26' E 004°54'0 0.0
2018-May-14 05:28N 43°26' E 004°54'0 0.0
2018-May-14 04:58N 43°26' E 004°54'0 0.0
2018-May-14 04:28N 43°26' E 004°54'0 0.0
2018-May-14 03:55N 43°26' E 004°54'0 0.0
2018-May-14 03:28N 43°26' E 004°54'0 0.0
2018-May-14 02:58N 43°26' E 004°54'0 0.0
2018-May-14 02:28N 43°26' E 004°54'0 0.0
2018-May-14 01:58N 43°26' E 004°54'0 0.0
2018-May-14 01:28N 43°26' E 004°54'0 0.0
2018-May-14 00:58N 43°26' E 004°54'0 0.0
2018-May-14 00:28N 43°26' E 004°54'0 0.0
2018-May-13 23:58N 43°26' E 004°54'0 0.1
2018-May-13 23:30N 43°26' E 004°54'3 6.2
2018-May-13 23:00N 43°23' E 004°56'4 7.7
2018-May-13 22:30N 43°20' E 004°59'510.6
2018-May-13 22:00N 43°17' E 004°52'510.8
2018-May-13 21:30N 43°16' E 004°45'611.1
2018-May-13 21:00N 43°16' E 004°37'611.5
2018-May-13 20:30N 43°16' E 004°29'611.1
2018-May-13 19:59N 43°16' E 004°21'1211.0
2018-May-13 18:51N 43°16' E 004°04'411.0
2018-May-13 18:30N 43°16' E 003°59'129 8.2
2018-May-13 02:46N 41°23' E 002°34'610.1
2018-May-13 02:08N 41°19' E 002°28'710.2
2018-May-13 01:26N 41°15' E 002°20'6 9.7
2018-May-13 00:50N 41°11' E 002°14'3 9.7
2018-May-13 00:29N 41°09' E 002°11'9 9.7
2018-May-12 23:36N 41°03' E 002°02'110.4
2018-May-12 23:30N 41°03' E 002°01'1610.6
2018-May-12 22:01N 40°52' E 001°45'110.6
2018-May-12 21:57N 40°52' E 001°44'116 6.9
2018-May-12 05:08N 39°38' W 000°13'119 4.9
2018-May-11 04:50N 41°06' E 001°33'310.1
2018-May-11 04:31N 41°07' E 001°37'  
Track history (hours):
 
Tides and Currents Weather Stations Pressure Air Temp Water Temp Dewpoint Dewpoint Depression Visibility Wind Speed Wind Dir Waves Ship Positions

Bosporus

Last reported at 2018-May-21 04:20 UTC. Time now 2018-May-22 15:53 UTC.
Position N 42°56' E 010°34'.

Length 100 m; draft 5.9 m.

Type: Cargo ship. MMSI: 304010802.

Date/timePositionNaut miles runAvg speedWind from/ knotsBaromVisibWave heightAir tempDewpointWater temp
2018-May-21 04:20N 42°56' E 010°34'1 2.1
2018-May-21 03:59N 42°55' E 010°34'2 2.8
2018-May-21 03:20N 42°54' E 010°32'5 5.4
2018-May-21 02:29N 42°56' E 010°27'4 7.4
2018-May-21 02:00N 42°58' E 010°22'4 7.6
2018-May-21 01:30N 42°59' E 010°18'4 7.3
2018-May-21 01:00N 43°01' E 010°13'4 7.4
2018-May-21 00:30N 43°03' E 010°09'4 7.4
2018-May-21 00:00N 43°05' E 010°05'4 7.2
2018-May-20 23:30N 43°06' E 010°00'3 6.9
2018-May-20 23:00N 43°08' E 009°56'4 7.6
2018-May-20 22:29N 43°09' E 009°51'3 7.0
2018-May-20 22:00N 43°10' E 009°47'4 7.3
2018-May-20 21:30N 43°10' E 009°42'4 7.0
2018-May-20 20:57N 43°10' E 009°36'6 7.1
2018-May-20 20:04N 43°09' E 009°28'1 7.1
2018-May-20 19:59N 43°09' E 009°27'3 7.2
2018-May-20 19:30N 43°09' E 009°22'4 7.4
2018-May-20 19:00N 43°09' E 009°17'4 7.2
2018-May-20 18:30N 43°09' E 009°12'4 7.2
2018-May-20 18:00N 43°09' E 009°07'4 8.4
2018-May-20 17:30N 43°08' E 009°01'4 8.4
2018-May-20 17:00N 43°08' E 008°56'4 8.1
2018-May-20 16:30N 43°07' E 008°50'4 7.8
2018-May-20 16:00N 43°07' E 008°45'4 7.8
2018-May-20 15:30N 43°06' E 008°40'4 7.5
2018-May-20 15:00N 43°06' E 008°34'4 7.5
2018-May-20 14:30N 43°05' E 008°29'4 7.6
2018-May-20 14:00N 43°05' E 008°24'4 7.6
2018-May-20 13:30N 43°05' E 008°19'4 7.6
2018-May-20 13:00N 43°04' E 008°14'4 7.3
2018-May-20 12:30N 43°04' E 008°09'4 7.1
2018-May-20 12:00N 43°04' E 008°04'4 7.3
2018-May-20 11:30N 43°03' E 007°59'4 7.5
2018-May-20 11:00N 43°03' E 007°54'26 7.4
2018-May-20 07:30N 43°01' E 007°18'5 7.5
2018-May-20 06:54N 43°00' E 007°12'4 8.7
2018-May-20 06:27N 42°60' E 007°07'93 9.1
2018-May-19 20:18N 43°12' E 005°01'3 9.8
2018-May-19 19:57N 43°16' E 004°60'4 9.8
2018-May-19 19:30N 43°20' E 004°58'4 8.9
2018-May-19 19:00N 43°24' E 004°55'2 4.8
2018-May-19 18:30N 43°26' E 004°53'0 0.0
2018-May-19 17:56N 43°26' E 004°53'0 0.0
2018-May-19 17:26N 43°26' E 004°53'0 0.0
2018-May-19 16:56N 43°26' E 004°53'0 0.0
2018-May-19 16:29N 43°26' E 004°53'0 0.0
2018-May-19 15:56N 43°26' E 004°53'0 0.0
2018-May-19 15:20N 43°26' E 004°53'0 0.0
2018-May-19 14:44N 43°26' E 004°53'0 0.0
2018-May-19 14:20N 43°26' E 004°53'0 0.0
2018-May-19 13:56N 43°26' E 004°53'0 0.0
2018-May-19 13:26N 43°26' E 004°53'0 0.0
2018-May-19 12:56N 43°26' E 004°53'0 0.0
2018-May-19 12:26N 43°26' E 004°53'0 0.0
2018-May-19 11:59N 43°26' E 004°53'0 0.0
2018-May-19 11:26N 43°26' E 004°53'0 0.0
2018-May-19 10:59N 43°26' E 004°53'0 0.0
2018-May-19 10:26N 43°26' E 004°53'0 0.0
2018-May-19 09:50N 43°26' E 004°53'0 0.0
2018-May-19 09:29N 43°26' E 004°53'0 0.0
2018-May-19 08:56N 43°26' E 004°53'0 0.0
2018-May-19 08:26N 43°26' E 004°53'0 0.0
2018-May-19 07:59N 43°26' E 004°53'0 0.0
2018-May-19 07:23N 43°26' E 004°53'0 0.0
2018-May-19 06:56N 43°26' E 004°53'0 0.0
2018-May-19 06:20N 43°26' E 004°53'0 0.0
2018-May-19 05:56N 43°26' E 004°53'0 0.0
2018-May-19 05:26N 43°26' E 004°53'0 0.0
2018-May-19 04:56N 43°26' E 004°53'0 0.0
2018-May-19 04:26N 43°26' E 004°53'0 0.0
2018-May-19 03:56N 43°26' E 004°53'0 0.0
2018-May-19 03:29N 43°26' E 004°53'0 0.0
2018-May-19 02:56N 43°26' E 004°53'0 0.0
2018-May-19 02:26N 43°26' E 004°53'0 0.0
2018-May-19 01:56N 43°26' E 004°53'0 0.0
2018-May-19 01:26N 43°26' E 004°53'0 0.0
2018-May-19 00:56N 43°26' E 004°53'0 0.0
2018-May-19 00:29N 43°26' E 004°53'0 0.0
2018-May-18 23:56N 43°26' E 004°53'0 0.0
2018-May-18 23:29N 43°26' E 004°53'0 0.0
2018-May-18 22:56N 43°26' E 004°53'0 0.0
2018-May-18 22:29N 43°26' E 004°53'0 0.0
2018-May-18 21:56N 43°26' E 004°53'0 0.0
2018-May-18 21:26N 43°26' E 004°53'0 0.0
2018-May-18 20:59N 43°26' E 004°53'0 0.5
2018-May-18 20:30N 43°25' E 004°53'2 3.3
2018-May-18 19:55N 43°25' E 004°56'0 0.1
2018-May-18 19:28N 43°25' E 004°56'0 0.0
2018-May-18 18:58N 43°25' E 004°56'0 0.0
2018-May-18 18:28N 43°25' E 004°56'0 0.1
2018-May-18 17:58N 43°25' E 004°56'0 0.0
2018-May-18 17:28N 43°25' E 004°56'0 0.0
2018-May-18 16:58N 43°25' E 004°56'0 0.0
2018-May-18 16:28N 43°25' E 004°56'0 0.0
2018-May-18 15:58N 43°25' E 004°56'0 0.0
2018-May-18 15:28N 43°25' E 004°56'0 0.0
2018-May-18 14:58N 43°25' E 004°56'0 0.0
2018-May-18 14:28N 43°25' E 004°56'0 0.0
2018-May-18 13:58N 43°25' E 004°56'0 0.0
2018-May-18 13:28N 43°25' E 004°56'0 0.0
2018-May-18 12:58N 43°25' E 004°56'0 0.0
2018-May-18 12:28N 43°25' E 004°56'0 0.0
2018-May-18 11:58N 43°25' E 004°56'0 0.0
2018-May-18 11:28N 43°25' E 004°56'0 0.0
2018-May-18 10:58N 43°25' E 004°56'0 0.0
2018-May-18 10:28N 43°25' E 004°56'0 0.0
2018-May-18 09:58N 43°25' E 004°56'0 0.0
2018-May-18 09:28N 43°25' E 004°56'0 0.0
2018-May-18 08:58N 43°25' E 004°56'0 0.0
2018-May-18 08:28N 43°25' E 004°56'0 0.0
2018-May-18 07:58N 43°25' E 004°56'0 0.1
2018-May-18 07:28N 43°25' E 004°56'0 0.1
2018-May-18 06:58N 43°25' E 004°56'0 0.0
2018-May-18 06:28N 43°25' E 004°56'0 0.1
2018-May-18 05:55N 43°25' E 004°56'0 0.0
2018-May-18 05:28N 43°25' E 004°56'0 0.0
2018-May-18 04:58N 43°25' E 004°56'0 0.0
2018-May-18 04:28N 43°25' E 004°56'0 0.0
2018-May-18 03:55N 43°25' E 004°56'0 0.0
2018-May-18 03:28N 43°25' E 004°56'0 0.0
2018-May-18 02:58N 43°25' E 004°56'0 0.0
2018-May-18 02:28N 43°25' E 004°56'0 0.0
2018-May-18 01:58N 43°25' E 004°56'0 0.0
2018-May-18 01:28N 43°25' E 004°56'0 0.0
2018-May-18 00:58N 43°25' E 004°56'0 0.0
2018-May-18 00:28N 43°25' E 004°56'0 0.0
2018-May-17 23:58N 43°25' E 004°56'0 0.0
2018-May-17 23:28N 43°25' E 004°56'0 0.1
2018-May-17 22:58N 43°25' E 004°56'0 0.0
2018-May-17 22:25N 43°25' E 004°56'0 0.0
2018-May-17 21:55N 43°25' E 004°56'0 0.0
2018-May-17 21:25N 43°25' E 004°56'0 0.0
2018-May-17 20:55N 43°25' E 004°56'0 0.0
2018-May-17 20:25N 43°25' E 004°56'0 0.0
2018-May-17 19:49N 43°25' E 004°56'0 0.0
2018-May-17 19:19N 43°25' E 004°56'0 0.0
2018-May-17 18:55N 43°25' E 004°56'0 0.0
2018-May-17 18:25N 43°25' E 004°56'0 0.0
2018-May-17 17:55N 43°25' E 004°56'0 0.0
2018-May-17 17:25N 43°25' E 004°56'0 0.0
2018-May-17 16:55N 43°25' E 004°56'0 0.0
2018-May-17 16:28N 43°25' E 004°56'0 0.0
2018-May-17 15:55N 43°25' E 004°56'0 0.0
2018-May-17 15:28N 43°25' E 004°56'0 0.0
2018-May-17 14:58N 43°25' E 004°56'3 5.5
2018-May-17 14:30N 43°22' E 004°58'510.2
2018-May-17 14:00N 43°18' E 004°60'510.7
2018-May-17 13:30N 43°13' E 005°02'15510.1
2018-May-16 22:10N 41°25' E 002°32'211.1
2018-May-16 22:00N 41°24' E 002°30'611.0
2018-May-16 21:30N 41°20' E 002°25'611.1
2018-May-16 21:00N 41°17' E 002°19'511.0
2018-May-16 20:30N 41°15' E 002°12'611.2
2018-May-16 20:00N 41°13' E 002°05'511.1
2018-May-16 19:30N 41°11' E 001°58'611.1
2018-May-16 19:00N 41°10' E 001°51'611.4
2018-May-16 18:30N 41°08' E 001°44'611.2
2018-May-16 18:00N 41°07' E 001°36'2 0.2
2018-May-16 06:41N 41°06' E 001°33'210.5
2018-May-16 06:30N 41°07' E 001°36'510.3
2018-May-16 06:00N 41°08' E 001°42'5 9.9
2018-May-16 05:30N 41°10' E 001°49'5 9.8
2018-May-16 05:00N 41°11' E 001°55'5 9.9
2018-May-16 04:30N 41°12' E 002°01'5 9.8
2018-May-16 04:00N 41°14' E 002°07'5 9.9
2018-May-16 03:30N 41°15' E 002°14'510.0
2018-May-16 03:00N 41°18' E 002°19'510.1
2018-May-16 02:30N 41°21' E 002°25'147 7.5
2018-May-15 06:49N 43°16' E 004°29'2 8.3
2018-May-15 06:30N 43°16' E 004°33'4 8.4
2018-May-15 06:00N 43°16' E 004°38'4 8.5
2018-May-15 05:30N 43°17' E 004°44'4 8.4
2018-May-15 05:00N 43°17' E 004°50'4 8.6
2018-May-15 04:30N 43°19' E 004°55'3 6.7
2018-May-15 04:00N 43°22' E 004°57'4 8.7
2018-May-15 03:30N 43°25' E 004°53'1 1.3
2018-May-15 02:58N 43°26' E 004°54'0 0.0
2018-May-15 02:25N 43°26' E 004°54'0 0.0
2018-May-15 01:55N 43°26' E 004°54'0 0.0
2018-May-15 01:28N 43°26' E 004°54'0 0.0
2018-May-15 00:58N 43°26' E 004°54'0 0.0
2018-May-15 00:28N 43°26' E 004°54'0 0.0
2018-May-14 23:58N 43°26' E 004°54'0 0.0
2018-May-14 23:28N 43°26' E 004°54'0 0.0
2018-May-14 22:58N 43°26' E 004°54'0 0.0
2018-May-14 22:28N 43°26' E 004°54'0 0.0
2018-May-14 21:55N 43°26' E 004°54'0 0.0
2018-May-14 21:28N 43°26' E 004°54'0 0.0
2018-May-14 20:58N 43°26' E 004°54'0 0.0
2018-May-14 20:28N 43°26' E 004°54'0 0.0
2018-May-14 19:58N 43°26' E 004°54'0 0.0
2018-May-14 19:28N 43°26' E 004°54'0 0.0
2018-May-14 18:58N 43°26' E 004°54'0 0.0
2018-May-14 18:28N 43°26' E 004°54'0 0.0
2018-May-14 17:58N 43°26' E 004°54'0 0.0
2018-May-14 17:28N 43°26' E 004°54'0 0.0
2018-May-14 16:58N 43°26' E 004°54'0 0.0
2018-May-14 16:28N 43°26' E 004°54'0 0.0
2018-May-14 15:58N 43°26' E 004°54'0 0.0
2018-May-14 15:28N 43°26' E 004°54'0 0.0
2018-May-14 14:58N 43°26' E 004°54'0 0.0
2018-May-14 14:28N 43°26' E 004°54'0 0.0
2018-May-14 13:58N 43°26' E 004°54'0 0.0
2018-May-14 13:28N 43°26' E 004°54'0 0.0
2018-May-14 12:58N 43°26' E 004°54'0 0.0
2018-May-14 12:28N 43°26' E 004°54'0 0.0
2018-May-14 11:55N 43°26' E 004°54'0 0.0
2018-May-14 11:28N 43°26' E 004°54'0 0.0
2018-May-14 10:58N 43°26' E 004°54'0 0.0
2018-May-14 10:28N 43°26' E 004°54'0 0.0
2018-May-14 09:58N 43°26' E 004°54'0 0.0
2018-May-14 09:28N 43°26' E 004°54'0 0.0
2018-May-14 08:58N 43°26' E 004°54'0 0.0
2018-May-14 08:19N 43°26' E 004°54'0 0.0
2018-May-14 07:58N 43°26' E 004°54'0 0.0
2018-May-14 07:28N 43°26' E 004°54'0 0.0
2018-May-14 06:58N 43°26' E 004°54'0 0.0
2018-May-14 06:28N 43°26' E 004°54'0 0.0
2018-May-14 05:58N 43°26' E 004°54'0 0.0
2018-May-14 05:28N 43°26' E 004°54'0 0.0
2018-May-14 04:58N 43°26' E 004°54'0 0.0
2018-May-14 04:28N 43°26' E 004°54'0 0.0
2018-May-14 03:55N 43°26' E 004°54'0 0.0
2018-May-14 03:28N 43°26' E 004°54'0 0.0
2018-May-14 02:58N 43°26' E 004°54'0 0.0
2018-May-14 02:28N 43°26' E 004°54'0 0.0
2018-May-14 01:58N 43°26' E 004°54'0 0.0
2018-May-14 01:28N 43°26' E 004°54'0 0.0
2018-May-14 00:58N 43°26' E 004°54'0 0.0
2018-May-14 00:28N 43°26' E 004°54'0 0.0
2018-May-13 23:58N 43°26' E 004°54'0 0.1
2018-May-13 23:30N 43°26' E 004°54'3 6.2
2018-May-13 23:00N 43°23' E 004°56'4 7.7
2018-May-13 22:30N 43°20' E 004°59'510.6
2018-May-13 22:00N 43°17' E 004°52'510.8
2018-May-13 21:30N 43°16' E 004°45'611.1
2018-May-13 21:00N 43°16' E 004°37'611.5
2018-May-13 20:30N 43°16' E 004°29'611.1
2018-May-13 19:59N 43°16' E 004°21'1211.0
2018-May-13 18:51N 43°16' E 004°04'411.0
2018-May-13 18:30N 43°16' E 003°59'129 8.2
2018-May-13 02:46N 41°23' E 002°34'610.1
2018-May-13 02:08N 41°19' E 002°28'710.2
2018-May-13 01:26N 41°15' E 002°20'6 9.7
2018-May-13 00:50N 41°11' E 002°14'3 9.7
2018-May-13 00:29N 41°09' E 002°11'9 9.7
2018-May-12 23:36N 41°03' E 002°02'110.4
2018-May-12 23:30N 41°03' E 002°01'1610.6
2018-May-12 22:01N 40°52' E 001°45'110.6
2018-May-12 21:57N 40°52' E 001°44'116 6.9
2018-May-12 05:08N 39°38' W 000°13'119 4.9
2018-May-11 04:50N 41°06' E 001°33'310.1
2018-May-11 04:31N 41°07' E 001°37'  

Dump ship's entire track history